Terminal Aerodrome Forecast
Issued by NWS Tallahassee, FL

Home | Current Version | Previous Version | Text Only | Print | Product List | Glossary On
Versions: 1 2 3 4 5 6 7 8 9 10 11 12 13 14 15 16 17 18 19 20 21
983
FTUS42 KTAE 200520
TAFTLH
TAF
KTLH 200520Z 2006/2106 15003KT 6SM BR SCT006
     FM200700 18005KT 4SM -RA BR SCT007 BKN015
     FM200900 18005KT 6SM BR BKN015
     FM201100 18005KT 3SM BR BKN007
     FM201600 21010KT P6SM BKN030=

USA.gov is the U.S. government's official web portal to all federal, state and local government web resources and services.